Weather History for Howell, MI

Change the Weather History Date:

Monday, October 10, 2011

  Actual Average Record
Temperature  
Mean Temperature 62 °F -  
Max Temperature 73 °F 62 °F 78 °F (2003)
Min Temperature 51 °F 42 °F 32 °F (2014)
Degree Days  
Heating Degree Days 3    
Growing Degree Days 12 (Base 50)    
Moisture  
Dew Point 52 °F    
Average Humidity 71    
Maximum Humidity 94    
Minimum Humidity 50    
Precipitation  
Precipitation 0.00 in - - ()
Sea Level Pressure  
Sea Level Pressure 30.27 in    
Wind  
Wind Speed 2 mph (SE)    
Max Wind Speed 12 mph    
Max Gust Speed -    
Visibility 9 miles    
Events      
Averages and records for this station are not official NWS values.
T = Trace of Precipitation, MM = Missing Value Source: NWS Daily Summary

Daily Weather History Graph

Daily Weather History Graph

Search for Another Location

Airport:

Trip Planner

Search our weather history database for the weather conditions in past years. The results will help you decide how hot, cold, wet, or windy it might be!

Date:

Astronomy

Oct. 10, 2011 Rise Set
Actual Time 7:42 AM EDT 7:02 PM EDT
Civil Twilight 7:14 AM EDT 7:30 PM EDT
Nautical Twilight 6:42 AM EDT 8:03 PM EDT
Astronomical Twilight 6:09 AM EDT 8:35 PM EDT
Moon 6:05 PM EDT (10/10) 6:22 AM EDT (10/10)
Length of Visible Light 12h 15m
Length of Day
11h 19m
Waxing Gibbous, 98% of the Moon is Illuminated
Oct 10
Waxing Gibbous
Oct 11
Full
Oct 19
Last Quarter
Oct 26
New
Nov 2
First Quarter

Hourly Weather History & Observations

Time (EDT) Temp. Dew Point Humidity Pressure Visibility Wind Dir Wind Speed Gust Speed Precip Events Conditions
12:14 AM 59.0 °F 50.0 °F 72% 30.32 in 10.0 mi Calm Calm - N/A   Clear
12:34 AM 55.4 °F 50.0 °F 82% 30.32 in 10.0 mi Calm Calm - N/A   Clear
12:54 AM 55.4 °F 50.0 °F 82% 30.32 in 10.0 mi Calm Calm - N/A   Clear
1:14 AM 55.4 °F 50.0 °F 82% 30.32 in 10.0 mi Calm Calm - N/A   Clear
1:34 AM 55.4 °F 50.0 °F 82% 30.32 in 10.0 mi Calm Calm - N/A   Clear
2:14 AM 53.6 °F 51.8 °F 94% 30.32 in 7.0 mi Calm Calm - N/A   Clear
2:34 AM 53.6 °F 50.0 °F 88% 30.32 in 10.0 mi Calm Calm - N/A   Clear
2:53 AM 53.6 °F 51.8 °F 94% 30.32 in 7.0 mi ESE 3.5 mph - N/A   Clear
3:14 AM 55.4 °F 51.8 °F 88% 30.32 in 7.0 mi Calm Calm - N/A   Clear
3:34 AM 55.4 °F 51.8 °F 88% 30.31 in 10.0 mi Calm Calm - N/A   Clear
3:54 AM 53.6 °F 50.0 °F 88% 30.31 in 7.0 mi Calm Calm - N/A   Clear
4:34 AM 53.6 °F 50.0 °F 88% 30.30 in 7.0 mi SE 3.5 mph - N/A   Clear
5:14 AM 53.6 °F 51.8 °F 94% 30.30 in 10.0 mi Calm Calm - N/A   Clear
5:34 AM 53.6 °F 50.0 °F 88% 30.30 in 7.0 mi Calm Calm - N/A   Clear
5:54 AM 53.6 °F 51.8 °F 94% 30.30 in 7.0 mi Calm Calm - N/A   Clear
6:14 AM 51.8 °F 50.0 °F 94% 30.30 in 7.0 mi Calm Calm - N/A   Clear
6:34 AM 51.8 °F 50.0 °F 94% 30.30 in 7.0 mi Calm Calm - N/A   Clear
6:54 AM 51.8 °F 50.0 °F 94% 30.30 in 5.0 mi Calm Calm - N/A   Clear
7:14 AM 51.8 °F 50.0 °F 94% 30.30 in 5.0 mi Calm Calm - N/A   Clear
7:34 AM 51.8 °F 50.0 °F 94% 30.30 in 5.0 mi Calm Calm - N/A   Clear
7:54 AM 53.6 °F 50.0 °F 88% 30.29 in 5.0 mi Calm Calm - N/A   Clear
8:13 AM 51.8 °F 50.0 °F 94% 30.29 in 5.0 mi Calm Calm - N/A   Clear
8:34 AM 53.6 °F 50.0 °F 88% 30.30 in 5.0 mi SE 3.5 mph - N/A   Clear
9:13 AM 57.2 °F 53.6 °F 88% 30.30 in 5.0 mi Calm Calm - N/A   Clear
9:34 AM 60.8 °F 53.6 °F 77% 30.30 in 7.0 mi Calm Calm - N/A   Clear
9:54 AM 62.6 °F 55.4 °F 77% 30.30 in 10.0 mi Calm Calm - N/A   Clear
10:15 AM 64.4 °F 55.4 °F 73% 30.31 in 10.0 mi ESE 3.5 mph - N/A   Clear
10:34 AM 66.2 °F 57.2 °F 73% 30.30 in 10.0 mi SE 3.5 mph - N/A   Clear
10:54 AM 68.0 °F 55.4 °F 64% 30.30 in 10.0 mi SE 6.9 mph - N/A   Clear
11:14 AM 69.8 °F 53.6 °F 56% 30.30 in 10.0 mi SE 8.1 mph - N/A   Clear
11:34 AM 69.8 °F 51.8 °F 53% 30.29 in 10.0 mi SE 9.2 mph - N/A   Clear
11:54 AM 69.8 °F 53.6 °F 56% 30.29 in 10.0 mi SE 9.2 mph - N/A   Clear
12:14 PM 71.6 °F 53.6 °F 53% 30.28 in 10.0 mi SE 9.2 mph - N/A   Clear
12:34 PM 71.6 °F 53.6 °F 53% 30.27 in 10.0 mi SE 6.9 mph - N/A   Clear
1:14 PM 71.6 °F 51.8 °F 50% 30.26 in 10.0 mi ESE 5.8 mph - N/A   Clear
1:34 PM 71.6 °F 53.6 °F 53% 30.25 in 10.0 mi SE 5.8 mph - N/A   Clear
1:54 PM 71.6 °F 51.8 °F 50% 30.25 in 10.0 mi SE 11.5 mph - N/A   Clear
2:14 PM 71.6 °F 51.8 °F 50% 30.23 in 10.0 mi ESE 9.2 mph - N/A   Clear
2:34 PM 71.6 °F 51.8 °F 50% 30.23 in 10.0 mi ESE 9.2 mph - N/A   Clear
2:54 PM 73.4 °F 53.6 °F 50% 30.22 in 10.0 mi SE 8.1 mph - N/A   Clear
3:14 PM 71.6 °F 51.8 °F 50% 30.22 in 10.0 mi SE 8.1 mph - N/A   Clear
3:34 PM 73.4 °F 53.6 °F 50% 30.21 in 10.0 mi SSE 8.1 mph - N/A   Clear
4:14 PM 73.4 °F 53.6 °F 50% 30.20 in 10.0 mi SSE 5.8 mph - N/A   Clear
4:34 PM 71.6 °F 53.6 °F 53% 30.20 in 10.0 mi SSE 4.6 mph - N/A   Clear
4:54 PM 71.6 °F 53.6 °F 53% 30.19 in 10.0 mi South 4.6 mph - N/A   Clear
5:14 PM 71.6 °F 53.6 °F 53% 30.18 in 10.0 mi SE 6.9 mph - N/A   Clear
5:34 PM 71.6 °F 53.6 °F 53% 30.17 in 10.0 mi SE 6.9 mph - N/A   Clear
5:54 PM 71.6 °F 53.6 °F 53% 30.17 in 10.0 mi SE 5.8 mph - N/A   Clear
6:14 PM 71.6 °F 53.6 °F 53% 30.17 in 10.0 mi SE 6.9 mph - N/A   Clear
6:33 PM 68.0 °F 51.8 °F 56% 30.17 in 10.0 mi ESE 9.2 mph - N/A   Clear
6:54 PM 68.0 °F 51.8 °F 56% 30.16 in 10.0 mi ESE 6.9 mph - N/A   Clear
7:34 PM 62.6 °F 50.0 °F 63% 30.16 in 10.0 mi SE 5.8 mph - N/A   Clear
8:14 PM 60.8 °F 50.0 °F 68% 30.16 in 10.0 mi ESE 6.9 mph - N/A   Clear
8:34 PM 60.8 °F 51.8 °F 72% 30.16 in 10.0 mi ESE 6.9 mph - N/A   Clear
8:54 PM 59.0 °F 50.0 °F 72% 30.17 in 10.0 mi ESE 5.8 mph - N/A   Clear
9:34 PM 59.0 °F 50.0 °F 72% 30.16 in 10.0 mi ESE 5.8 mph - N/A   Clear
9:54 PM 59.0 °F 50.0 °F 72% 30.16 in 10.0 mi ESE 4.6 mph - N/A   Clear
10:14 PM 59.0 °F 50.0 °F 72% 30.17 in 10.0 mi ESE 5.8 mph - N/A   Clear
10:34 PM 57.2 °F 50.0 °F 77% 30.17 in 10.0 mi SE 5.8 mph - N/A   Clear
10:54 PM 57.2 °F 50.0 °F 77% 30.17 in 10.0 mi ESE 6.9 mph - N/A   Clear
11:34 PM 55.4 °F 50.0 °F 82% 30.17 in 10.0 mi ESE 5.8 mph - N/A   Clear
11:54 PM 55.4 °F 50.0 °F 82% 30.16 in 10.0 mi ESE 5.8 mph - N/A   Clear